Terminal Aerodrome Forecast
Issued by NWS

Home | Current Version | Previous Version | Text Only | Print | Product List | Glossary On
Versions: 1 2 3 4 5 6 7 8 9 10 11 12
849
FTUS42 KMLB 232032 AAA
TAFISM
TAF AMD
KISM 232032Z 2321/2418 17009KT P6SM SCT040 BKN200
     FM232130 12008KT P6SM SCT050 BKN200
     FM240300 VRB04KT P6SM SCT035 BKN200
     FM241200 26007KT P6SM SCT035=

USA.gov is the U.S. government's official web portal to all federal, state and local government web resources and services.